createdAt,value
2023-05-05T00:01:02.438Z,13.69
2023-05-05T00:03:29.241Z,13.71
2023-05-05T00:05:55.796Z,13.71
2023-05-05T00:08:24.820Z,13.70
2023-05-05T00:10:56.031Z,13.70
2023-05-05T00:13:22.394Z,13.70
2023-05-05T00:15:50.281Z,13.73
2023-05-05T00:18:17.778Z,13.70
2023-05-05T00:20:47.008Z,13.70
2023-05-05T00:23:14.216Z,13.73
2023-05-05T00:25:40.862Z,13.80
2023-05-05T00:28:07.252Z,13.88
2023-05-05T00:30:34.680Z,13.87
2023-05-05T00:33:03.770Z,13.87
2023-05-05T00:35:30.390Z,13.84
2023-05-05T00:37:57.031Z,13.84
2023-05-05T00:40:23.582Z,13.82
2023-05-05T00:42:53.430Z,13.82
2023-05-05T00:45:21.361Z,13.79
2023-05-05T00:47:49.544Z,13.76
2023-05-05T00:50:26.161Z,13.81
2023-05-05T00:52:56.120Z,13.86
2023-05-05T00:55:22.730Z,13.81
2023-05-05T00:57:49.674Z,13.78
2023-05-05T01:00:16.809Z,13.94
2023-05-05T01:02:44.231Z,13.97
2023-05-05T01:05:13.282Z,14.00
2023-05-05T01:08:05.937Z,13.96
2023-05-05T01:10:44.279Z,14.13
2023-05-05T01:13:28.217Z,14.08
2023-05-05T01:16:27.418Z,14.05
2023-05-05T01:19:29.695Z,14.19
2023-05-05T01:22:02.213Z,14.13
2023-05-05T01:24:59.202Z,14.13
2023-05-05T01:28:15.691Z,14.09
2023-05-05T01:31:11.374Z,14.07
2023-05-05T01:33:46.142Z,14.00
2023-05-05T01:36:22.965Z,13.97
2023-05-05T01:38:56.337Z,13.92
2023-05-05T01:41:32.890Z,13.85
2023-05-05T01:44:03.320Z,13.78
2023-05-05T01:46:34.180Z,13.77
2023-05-05T01:49:00.835Z,13.69
2023-05-05T01:51:28.759Z,13.59
2023-05-05T01:54:00.602Z,13.58
2023-05-05T01:56:28.245Z,13.52
2023-05-05T01:58:56.158Z,13.45
2023-05-05T02:01:27.644Z,13.47
2023-05-05T02:03:58.987Z,13.35
2023-05-05T02:06:29.716Z,13.36
2023-05-05T02:08:58.309Z,13.30
2023-05-05T02:11:28.031Z,13.29
2023-05-05T02:13:55.747Z,13.25
2023-05-05T02:16:23.602Z,13.24
2023-05-05T02:18:54.431Z,13.18
2023-05-05T02:21:21.309Z,13.19
2023-05-05T02:23:51.916Z,13.18
2023-05-05T02:26:24.555Z,13.18
2023-05-05T02:29:02.113Z,13.21
2023-05-05T02:31:31.042Z,13.32
2023-05-05T02:33:59.973Z,13.32
2023-05-05T02:36:29.550Z,13.21
2023-05-05T02:39:01.194Z,13.11
2023-05-05T02:41:32.903Z,13.07
2023-05-05T02:44:02.424Z,13.03
2023-05-05T02:46:28.962Z,13.00
2023-05-05T02:48:55.474Z,12.95
2023-05-05T02:51:21.858Z,12.86
2023-05-05T02:53:48.474Z,12.81
2023-05-05T02:56:41.234Z,12.77
2023-05-05T02:59:36.556Z,12.78
2023-05-05T03:02:18.169Z,12.74
2023-05-05T03:04:56.821Z,12.72
2023-05-05T03:07:31.701Z,12.69
2023-05-05T03:10:02.924Z,12.62
2023-05-05T03:12:39.869Z,12.59
2023-05-05T03:15:11.882Z,12.54
2023-05-05T03:17:40.283Z,12.48
2023-05-05T03:20:08.121Z,12.40
2023-05-05T03:22:37.872Z,12.43
2023-05-05T03:25:05.230Z,12.42
2023-05-05T03:27:31.865Z,12.44
2023-05-05T03:29:58.337Z,12.64
2023-05-05T03:32:24.802Z,12.46
2023-05-05T03:34:51.267Z,12.38
2023-05-05T03:37:17.604Z,12.36
2023-05-05T03:39:43.993Z,12.27
2023-05-05T03:42:10.483Z,12.33
2023-05-05T03:44:37.039Z,12.58
2023-05-05T03:47:03.461Z,12.54
2023-05-05T03:49:29.916Z,12.41
2023-05-05T03:51:58.793Z,12.43
2023-05-05T03:54:25.411Z,12.40
2023-05-05T03:56:51.749Z,12.40
2023-05-05T03:59:18.132Z,12.39
2023-05-05T04:01:46.968Z,12.40
2023-05-05T04:04:13.475Z,12.39
2023-05-05T04:06:40.032Z,12.40
2023-05-05T04:09:06.550Z,12.62
2023-05-05T04:11:33.088Z,12.57
2023-05-05T04:14:02.297Z,12.88
2023-05-05T04:16:28.896Z,12.88
2023-05-05T04:18:55.450Z,12.83
2023-05-05T04:21:21.973Z,12.81
2023-05-05T04:23:48.959Z,12.96
2023-05-05T04:26:15.494Z,12.88
2023-05-05T04:28:41.973Z,12.85
2023-05-05T04:31:08.675Z,12.81
2023-05-05T04:33:35.110Z,12.78
2023-05-05T04:36:01.542Z,12.73
2023-05-05T04:38:28.245Z,12.75
2023-05-05T04:40:54.715Z,12.79
2023-05-05T04:43:21.085Z,12.76
2023-05-05T04:45:54.499Z,12.84
2023-05-05T04:48:23.307Z,12.90
2023-05-05T04:50:49.654Z,12.93
2023-05-05T04:53:16.971Z,13.00
2023-05-05T04:55:43.439Z,13.10
2023-05-05T04:58:17.379Z,13.17
2023-05-05T05:00:43.734Z,13.41
2023-05-05T05:03:12.294Z,13.53
2023-05-05T05:05:38.819Z,13.74
2023-05-05T05:08:05.540Z,13.80
2023-05-05T05:10:35.001Z,13.89
2023-05-05T05:13:01.729Z,13.96
2023-05-05T05:15:28.116Z,14.04
2023-05-05T05:17:54.910Z,14.22
2023-05-05T05:20:24.253Z,14.49
2023-05-05T05:22:50.951Z,14.77
2023-05-05T05:25:17.453Z,15.07
2023-05-05T05:27:44.142Z,15.19
2023-05-05T05:30:11.616Z,15.26
2023-05-05T05:32:40.409Z,15.51
2023-05-05T05:35:07.187Z,15.72
2023-05-05T05:37:36.716Z,15.84
2023-05-05T05:40:05.078Z,15.99
2023-05-05T05:42:31.571Z,16.09
2023-05-05T05:45:00.926Z,16.15
2023-05-05T05:47:28.013Z,16.17
2023-05-05T05:49:54.537Z,16.13
2023-05-05T05:52:20.902Z,16.13
2023-05-05T05:54:47.356Z,16.14
2023-05-05T05:57:16.624Z,16.24
2023-05-05T05:59:45.327Z,16.43
2023-05-05T06:02:12.102Z,16.70
2023-05-05T06:04:38.739Z,17.01
2023-05-05T06:07:08.361Z,17.21
2023-05-05T06:09:34.691Z,17.34
2023-05-05T06:12:03.741Z,17.33
2023-05-05T06:14:30.334Z,17.44
2023-05-05T06:16:56.718Z,17.63
2023-05-05T06:19:23.250Z,17.84
2023-05-05T06:21:51.972Z,17.90
2023-05-05T06:24:20.899Z,18.08
2023-05-05T06:26:47.402Z,18.07
2023-05-05T06:29:13.828Z,18.00
2023-05-05T06:31:40.365Z,17.88
2023-05-05T06:34:07.183Z,17.89
2023-05-05T06:36:33.565Z,17.88
2023-05-05T06:39:00.032Z,17.88
2023-05-05T06:41:28.809Z,17.96
2023-05-05T06:43:55.128Z,18.10
2023-05-05T06:46:21.580Z,18.20
2023-05-05T06:48:48.177Z,18.25
2023-05-05T06:51:15.507Z,18.42
2023-05-05T06:53:41.938Z,18.70
2023-05-05T06:56:11.508Z,18.82
2023-05-05T06:58:37.932Z,18.89
2023-05-05T07:01:05.079Z,19.63
2023-05-05T07:03:31.856Z,20.15
2023-05-05T07:06:00.775Z,20.31
2023-05-05T07:08:27.219Z,20.24
2023-05-05T07:10:53.667Z,20.19
2023-05-05T07:13:20.184Z,20.11
2023-05-05T07:15:46.680Z,20.44
2023-05-05T07:18:16.756Z,20.37
2023-05-05T07:20:46.767Z,20.74
2023-05-05T07:23:15.965Z,20.67
2023-05-05T07:25:42.547Z,20.93
2023-05-05T07:28:09.062Z,21.42
2023-05-05T07:30:35.402Z,21.27
2023-05-05T07:33:01.804Z,21.45
2023-05-05T07:35:28.536Z,21.46
2023-05-05T07:37:54.878Z,21.63
2023-05-05T07:40:21.467Z,21.50
2023-05-05T07:42:48.125Z,21.60
2023-05-05T07:45:17.164Z,21.63
2023-05-05T07:47:43.762Z,21.70
2023-05-05T07:50:13.218Z,21.96
2023-05-05T07:55:14.358Z,22.71
2023-05-05T07:57:41.014Z,22.65
2023-05-05T08:00:08.226Z,23.17
2023-05-05T08:02:35.336Z,23.33
2023-05-05T08:05:01.770Z,23.46
2023-05-05T08:07:28.255Z,23.26
2023-05-05T08:09:56.118Z,23.62
2023-05-05T08:12:22.464Z,23.77
2023-05-05T08:14:48.816Z,23.65
2023-05-05T08:17:16.223Z,23.08
2023-05-05T08:19:42.922Z,23.24
2023-05-05T08:22:09.271Z,23.43
2023-05-05T08:24:36.248Z,24.01
2023-05-05T08:27:03.654Z,24.17
2023-05-05T08:29:30.404Z,24.38
2023-05-05T08:31:57.322Z,24.94
2023-05-05T08:34:23.854Z,24.87
2023-05-05T08:36:50.927Z,24.83
2023-05-05T08:39:17.508Z,24.44
2023-05-05T08:41:43.901Z,24.93
2023-05-05T08:44:10.402Z,24.87
2023-05-05T08:46:42.909Z,25.11
2023-05-05T08:49:15.847Z,25.12
2023-05-05T08:51:44.408Z,25.35
2023-05-05T08:54:17.625Z,25.03
2023-05-05T08:56:48.217Z,24.78
2023-05-05T08:59:15.548Z,24.53
2023-05-05T09:01:42.810Z,24.31
2023-05-05T09:04:09.650Z,24.01
2023-05-05T09:06:37.108Z,23.89
2023-05-05T09:09:03.730Z,23.80
2023-05-05T09:11:30.630Z,23.52
2023-05-05T09:13:57.136Z,23.45
2023-05-05T09:16:26.120Z,23.74
2023-05-05T09:19:02.387Z,23.74
2023-05-05T09:21:29.223Z,24.33
2023-05-05T09:24:12.515Z,23.69
2023-05-05T09:26:43.290Z,23.17
2023-05-05T09:29:10.338Z,23.18
2023-05-05T09:31:37.565Z,23.28
2023-05-05T09:34:17.117Z,23.14
2023-05-05T09:36:48.352Z,22.87
2023-05-05T09:39:19.679Z,22.86
2023-05-05T09:41:47.062Z,22.65
2023-05-05T09:44:21.444Z,22.97
2023-05-05T09:46:52.792Z,23.08
2023-05-05T09:49:23.026Z,23.24
2023-05-05T09:51:49.642Z,23.34
2023-05-05T09:54:27.464Z,23.14
2023-05-05T09:56:55.490Z,22.91
2023-05-05T09:59:23.313Z,23.16
2023-05-05T10:01:50.809Z,23.28
2023-05-05T10:04:30.710Z,23.48
2023-05-05T10:06:58.319Z,23.66
2023-05-05T10:09:31.687Z,23.74
2023-05-05T10:12:01.818Z,23.61
2023-05-05T10:14:32.372Z,23.84
2023-05-05T10:17:01.668Z,23.79
2023-05-05T10:19:32.741Z,23.75
2023-05-05T10:22:08.293Z,23.89
2023-05-05T10:24:39.601Z,23.62
2023-05-05T10:27:17.144Z,23.73
2023-05-05T10:29:57.496Z,24.14
2023-05-05T10:32:53.571Z,24.34
2023-05-05T10:35:27.555Z,24.65
2023-05-05T10:37:54.917Z,24.51
2023-05-05T10:40:25.267Z,24.46
2023-05-05T10:42:54.649Z,24.53
2023-05-05T10:45:21.086Z,24.94
2023-05-05T10:47:50.623Z,25.38
2023-05-05T10:50:32.272Z,25.56
2023-05-05T10:53:23.529Z,26.00
2023-05-05T10:56:21.453Z,25.90
2023-05-05T10:58:59.033Z,25.34
2023-05-05T11:01:33.782Z,24.98
2023-05-05T11:04:20.120Z,24.55
2023-05-05T11:07:10.314Z,24.29
2023-05-05T11:10:04.220Z,24.09
2023-05-05T11:12:32.486Z,24.07
2023-05-05T11:15:26.726Z,24.18
2023-05-05T11:18:06.659Z,24.18
2023-05-05T11:20:40.027Z,24.16
2023-05-05T11:23:07.343Z,24.09
2023-05-05T11:25:40.928Z,24.05
2023-05-05T11:28:14.654Z,24.28
2023-05-05T11:30:59.510Z,24.29
2023-05-05T11:33:30.889Z,24.22
2023-05-05T11:36:03.428Z,24.10
2023-05-05T11:39:17.493Z,24.05
2023-05-05T11:42:10.390Z,23.99
2023-05-05T11:44:40.163Z,23.98
2023-05-05T11:47:06.497Z,24.05
2023-05-05T11:49:36.864Z,23.92
2023-05-05T11:52:06.423Z,23.97
2023-05-05T11:54:35.094Z,24.01
2023-05-05T11:57:08.063Z,23.80
2023-05-05T11:59:51.487Z,24.04
2023-05-05T12:02:19.346Z,24.22
2023-05-05T12:04:46.914Z,24.39
2023-05-05T12:07:22.518Z,24.38
2023-05-05T12:09:50.132Z,24.23
2023-05-05T12:12:17.571Z,24.14
2023-05-05T12:14:52.474Z,23.98
2023-05-05T12:17:23.094Z,23.79
2023-05-05T12:19:51.928Z,23.54
2023-05-05T12:22:28.036Z,23.50
2023-05-05T12:24:58.953Z,23.43
2023-05-05T12:27:27.533Z,23.28
2023-05-05T12:29:56.649Z,23.09
2023-05-05T12:32:25.190Z,23.06
2023-05-05T12:34:57.536Z,23.01
2023-05-05T12:37:25.938Z,23.00
2023-05-05T12:39:54.710Z,22.94
2023-05-05T12:42:22.352Z,22.78
2023-05-05T12:44:49.146Z,22.72
2023-05-05T12:47:30.407Z,22.74
2023-05-05T12:49:57.639Z,23.00
2023-05-05T12:52:24.044Z,23.09
2023-05-05T12:55:02.180Z,23.36
2023-05-05T12:57:28.630Z,23.46
2023-05-05T12:59:55.412Z,23.74
2023-05-05T13:02:33.431Z,23.78
2023-05-05T13:04:59.928Z,23.97
2023-05-05T13:07:26.478Z,24.09
2023-05-05T13:10:07.943Z,24.14
2023-05-05T13:12:34.336Z,23.94
2023-05-05T13:15:00.754Z,23.73
2023-05-05T13:17:27.182Z,23.72
2023-05-05T13:19:53.558Z,23.80
2023-05-05T13:22:20.129Z,23.92
2023-05-05T13:24:52.332Z,23.90
2023-05-05T13:27:22.598Z,24.05
2023-05-05T13:29:49.229Z,24.11
2023-05-05T13:32:18.003Z,24.43
2023-05-05T13:34:46.812Z,24.37
2023-05-05T13:37:13.236Z,24.33
2023-05-05T13:39:39.732Z,24.29
2023-05-05T13:42:06.085Z,24.17
2023-05-05T13:44:32.550Z,24.23
2023-05-05T13:47:01.554Z,24.09
2023-05-05T13:49:30.261Z,24.02
2023-05-05T13:51:57.031Z,24.03
2023-05-05T13:54:23.370Z,23.89
2023-05-05T13:56:49.882Z,23.83
2023-05-05T13:59:16.238Z,23.84
2023-05-05T14:01:42.643Z,23.86
2023-05-05T14:04:09.187Z,23.95
2023-05-05T14:06:38.266Z,23.90
2023-05-05T14:09:06.235Z,23.68
2023-05-05T14:11:32.935Z,23.60
2023-05-05T14:13:59.407Z,23.74
2023-05-05T14:16:25.911Z,23.86
2023-05-05T14:18:52.340Z,23.79
2023-05-05T14:21:19.235Z,23.65
2023-05-05T14:23:48.005Z,23.60
2023-05-05T14:26:14.465Z,23.70
2023-05-05T14:28:42.173Z,23.92
2023-05-05T14:31:08.697Z,23.89
2023-05-05T14:33:35.082Z,23.70
2023-05-05T14:36:01.602Z,23.62
2023-05-05T14:38:33.047Z,23.52
2023-05-05T14:40:59.511Z,23.36
2023-05-05T14:43:28.708Z,23.41
2023-05-05T14:45:55.194Z,23.30
2023-05-05T14:48:22.290Z,23.19
2023-05-05T14:50:51.353Z,23.15
2023-05-05T14:53:18.981Z,23.10
2023-05-05T14:55:45.403Z,22.95
2023-05-05T14:58:12.570Z,22.90
2023-05-05T15:00:39.132Z,22.84
2023-05-05T15:03:05.604Z,22.93
2023-05-05T15:05:32.394Z,22.82
2023-05-05T15:08:01.395Z,22.80
2023-05-05T15:10:27.769Z,22.80
2023-05-05T15:12:54.282Z,22.69
2023-05-05T15:15:20.709Z,22.65
2023-05-05T15:17:47.253Z,22.60
2023-05-05T15:20:13.958Z,22.49
2023-05-05T15:22:40.390Z,22.40
2023-05-05T15:25:10.751Z,22.26
2023-05-05T15:27:38.061Z,22.22
2023-05-05T15:30:05.926Z,22.11
2023-05-05T15:32:32.738Z,22.00
2023-05-05T15:34:59.244Z,21.94
2023-05-05T15:37:25.683Z,21.83
2023-05-05T15:39:55.419Z,21.76
2023-05-05T15:42:21.923Z,21.65
2023-05-05T15:44:48.546Z,21.51
2023-05-05T15:47:14.981Z,21.37
2023-05-05T15:49:41.472Z,21.13
2023-05-05T15:52:08.043Z,20.87
2023-05-05T15:54:37.013Z,20.55
2023-05-05T15:57:03.630Z,19.81
2023-05-05T15:59:30.230Z,19.02
2023-05-05T16:01:58.815Z,18.53
2023-05-05T16:04:30.664Z,18.15
2023-05-05T16:06:59.694Z,17.84
2023-05-05T16:09:26.076Z,17.43
2023-05-05T16:11:55.334Z,17.15
2023-05-05T16:14:24.397Z,16.99
2023-05-05T16:16:50.764Z,16.73
2023-05-05T16:19:18.092Z,16.65
2023-05-05T16:21:48.156Z,16.54
2023-05-05T16:24:16.473Z,16.44
2023-05-05T16:26:43.606Z,16.35
2023-05-05T16:29:10.521Z,16.28
2023-05-05T16:31:36.960Z,16.18
2023-05-05T16:34:04.580Z,16.07
2023-05-05T16:36:31.215Z,15.96
2023-05-05T16:38:58.112Z,15.88
2023-05-05T16:41:25.975Z,15.82
2023-05-05T16:43:55.380Z,15.81
2023-05-05T16:46:21.799Z,15.78
2023-05-05T16:48:48.284Z,15.76
2023-05-05T16:51:17.271Z,15.70
2023-05-05T16:53:47.146Z,15.64
2023-05-05T16:56:15.503Z,15.62
2023-05-05T16:58:41.836Z,15.59
2023-05-05T17:01:08.356Z,15.58
2023-05-05T17:03:34.986Z,15.57
2023-05-05T17:06:01.405Z,15.57
2023-05-05T17:08:28.004Z,15.54
2023-05-05T17:10:55.123Z,15.58
2023-05-05T17:13:26.125Z,15.56
2023-05-05T17:15:52.538Z,15.62
2023-05-05T17:18:21.143Z,15.67
2023-05-05T17:20:49.460Z,15.67
2023-05-05T17:23:16.593Z,15.73
2023-05-05T17:25:43.818Z,15.85
2023-05-05T17:28:10.448Z,15.84
2023-05-05T17:30:37.536Z,15.87
2023-05-05T17:33:06.183Z,16.02
2023-05-05T17:35:32.818Z,16.09
2023-05-05T17:38:01.840Z,16.01
2023-05-05T17:40:28.426Z,16.01
2023-05-05T17:42:54.830Z,15.92
2023-05-05T17:45:21.330Z,15.92
2023-05-05T17:47:49.581Z,15.86
2023-05-05T17:50:16.032Z,15.87
2023-05-05T17:52:43.840Z,15.83
2023-05-05T17:55:10.945Z,15.78
2023-05-05T17:57:37.990Z,15.73
2023-05-05T18:00:06.031Z,15.59
2023-05-05T18:02:32.718Z,15.46
2023-05-05T18:05:01.699Z,15.42
2023-05-05T18:07:28.363Z,15.34
2023-05-05T18:09:55.690Z,15.31
2023-05-05T18:12:24.359Z,15.32
2023-05-05T18:14:50.726Z,15.28
2023-05-05T18:17:18.671Z,15.26
2023-05-05T18:19:47.251Z,15.24
2023-05-05T18:22:14.949Z,15.19
2023-05-05T18:24:41.305Z,15.16
2023-05-05T18:27:07.741Z,15.10
2023-05-05T18:29:35.146Z,15.12
2023-05-05T18:32:01.920Z,15.09
2023-05-05T18:34:29.503Z,15.07
2023-05-05T18:36:58.683Z,15.06
2023-05-05T18:39:25.695Z,15.03
2023-05-05T18:41:54.422Z,14.98
2023-05-05T18:44:20.820Z,14.98
2023-05-05T18:46:48.561Z,14.95
2023-05-05T18:49:15.232Z,14.93
2023-05-05T18:51:41.692Z,14.90
2023-05-05T18:54:08.158Z,14.87
2023-05-05T18:56:34.749Z,14.86
2023-05-05T18:59:01.297Z,14.87
2023-05-05T19:01:27.827Z,14.84
2023-05-05T19:03:54.287Z,14.80
2023-05-05T19:06:23.150Z,14.79
2023-05-05T19:08:49.759Z,14.77
2023-05-05T19:11:18.479Z,14.76
2023-05-05T19:13:45.291Z,14.75
2023-05-05T19:16:14.552Z,14.75
2023-05-05T19:18:45.822Z,14.72
2023-05-05T19:21:14.568Z,14.72
2023-05-05T19:23:40.970Z,14.69
2023-05-05T19:26:07.345Z,14.68
2023-05-05T19:28:33.890Z,14.70
2023-05-05T19:31:00.314Z,14.67
2023-05-05T19:33:27.062Z,14.63
2023-05-05T19:35:56.513Z,14.68
2023-05-05T19:38:25.032Z,14.65
2023-05-05T19:40:54.059Z,14.66
2023-05-05T19:43:20.393Z,14.69
2023-05-05T19:45:49.198Z,14.72
2023-05-05T19:48:16.211Z,14.71
2023-05-05T19:50:42.620Z,14.73
2023-05-05T19:53:14.308Z,14.79
2023-05-05T19:55:40.800Z,14.76
2023-05-05T19:58:07.142Z,14.74
2023-05-05T20:00:38.487Z,14.72
2023-05-05T20:03:04.946Z,14.74
2023-05-05T20:05:31.434Z,14.75
2023-05-05T20:07:57.791Z,14.78
2023-05-05T20:10:26.586Z,14.76
2023-05-05T20:12:57.924Z,14.71
2023-05-05T20:15:24.367Z,14.67
2023-05-05T20:17:50.791Z,14.66
2023-05-05T20:20:22.202Z,14.63
2023-05-05T20:22:49.282Z,14.66
2023-05-05T20:25:18.612Z,14.65
2023-05-05T20:27:45.740Z,14.64
2023-05-05T20:30:15.154Z,14.57
2023-05-05T20:32:41.648Z,14.59
2023-05-05T20:35:08.968Z,14.59
2023-05-05T20:37:35.500Z,14.56
2023-05-05T20:40:04.226Z,14.54
2023-05-05T20:42:30.707Z,14.51
2023-05-05T20:44:57.570Z,14.49
2023-05-05T20:47:24.280Z,14.51
2023-05-05T20:49:53.267Z,14.51
2023-05-05T20:52:19.933Z,14.60
2023-05-05T20:54:49.582Z,14.55
2023-05-05T20:57:15.906Z,14.61
2023-05-05T20:59:42.272Z,14.58
2023-05-05T21:02:11.026Z,14.51
2023-05-05T21:04:37.577Z,14.53
2023-05-05T21:07:04.076Z,14.61
2023-05-05T21:09:31.353Z,14.63
2023-05-05T21:11:57.701Z,14.61
2023-05-05T21:14:24.381Z,14.60
2023-05-05T21:16:50.900Z,14.54
2023-05-05T21:19:17.410Z,14.50
2023-05-05T21:21:44.216Z,14.48
2023-05-05T21:24:12.844Z,14.43
2023-05-05T21:26:43.230Z,14.36
2023-05-05T21:29:09.710Z,14.34
2023-05-05T21:31:40.809Z,14.30
2023-05-05T21:34:07.250Z,14.28
2023-05-05T21:36:34.184Z,14.23
2023-05-05T21:39:00.851Z,14.16
2023-05-05T21:41:27.194Z,14.09
2023-05-05T21:43:56.258Z,14.01
2023-05-05T21:46:22.861Z,13.93
2023-05-05T21:48:49.452Z,13.91
2023-05-05T21:51:16.117Z,13.88
2023-05-05T21:53:42.674Z,13.82
2023-05-05T21:56:09.135Z,13.79
2023-05-05T21:58:35.691Z,13.76
2023-05-05T22:01:02.406Z,13.68
2023-05-05T22:03:31.325Z,13.61
2023-05-05T22:05:57.959Z,13.62
2023-05-05T22:08:24.354Z,13.60
2023-05-05T22:10:50.826Z,13.61
2023-05-05T22:13:19.480Z,13.54
2023-05-05T22:15:47.439Z,13.57
2023-05-05T22:18:15.025Z,13.60
2023-05-05T22:20:41.497Z,13.56
2023-05-05T22:23:08.059Z,13.53
2023-05-05T22:25:34.979Z,13.46
2023-05-05T22:28:01.466Z,13.44
2023-05-05T22:30:27.889Z,13.41
2023-05-05T22:32:54.925Z,13.34
2023-05-05T22:35:23.769Z,13.35
2023-05-05T22:37:50.339Z,13.23
2023-05-05T22:40:16.856Z,13.16
2023-05-05T22:42:43.358Z,13.17
2023-05-05T22:45:10.313Z,13.05
2023-05-05T22:47:37.198Z,12.97
2023-05-05T22:50:03.708Z,12.98
2023-05-05T22:52:30.545Z,12.90
2023-05-05T22:54:59.224Z,12.81
2023-05-05T22:57:25.682Z,12.79
2023-05-05T22:59:52.405Z,12.81
2023-05-05T23:02:18.800Z,12.80
2023-05-05T23:04:45.470Z,12.80
2023-05-05T23:07:12.736Z,12.80
2023-05-05T23:09:39.632Z,12.74
2023-05-05T23:12:08.487Z,12.68
2023-05-05T23:14:35.914Z,12.53
2023-05-05T23:17:02.377Z,12.58
2023-05-05T23:19:29.139Z,12.52
2023-05-05T23:22:00.335Z,12.52
2023-05-05T23:24:27.733Z,12.47
2023-05-05T23:26:54.704Z,12.40
2023-05-05T23:29:21.247Z,12.36
2023-05-05T23:31:50.326Z,12.34
2023-05-05T23:34:19.166Z,12.35
2023-05-05T23:36:45.590Z,12.32
2023-05-05T23:39:14.544Z,12.23
2023-05-05T23:41:40.957Z,12.25
2023-05-05T23:44:07.449Z,12.23
2023-05-05T23:46:33.931Z,12.20
2023-05-05T23:49:01.938Z,12.24
2023-05-05T23:51:28.390Z,12.32
2023-05-05T23:53:57.156Z,12.28
2023-05-05T23:56:24.480Z,12.21
2023-05-05T23:58:52.324Z,12.18
